»·PEaware :: N524ML KBFI-KORS

N524ML :: KBFI-KORS

FLIGHT INFORMATION

Flight Status: Arrived
Operator: Privately registered:
United States
More flights under this callsign
Pilot: Max L. (14194)
Aircraft: CESSNA T210 TURBO CENTURION
(T210)
More flights by this aircraft type
Origin: KBFI Boeing Field/King Co Intl
United States
Destination: KORS Orcas I
United States
More flights between these airports :: More routes between these airports
Route: CBAIN1 CBAIN LOFAL V495 DIGGN V165 CVV
File this flight plan on PilotEdge
Remarks:
Altitude:
(Current/Filed)
4,000ft
Speed:
(Current/Filed)
195kts
Departed: 23-Dec-17 09:59 AM
Arrived: 23-Dec-17 10:32 AM
Distance/Time
Traveled:
75nm/0:33
Distance/Time
To Go:
Arrived

Flight Plot

Page will automatically refresh every two minutes.

Flight plan parsing failed; only flown route is shown


Map Options




Map Legend


Flown Route
Filed Route
Departure Airport
Arrival Airport
Navaid (VOR, NDB)
Fix

Horizontal Profiles

Position Reports

Time Latitude Longitude Heading Altitude Ground
Speed
23-Dec-17 09:29 47.526534 -122.302002 154 19ft 0kts
23-Dec-17 09:30 47.526534 -122.302002 154 19ft 0kts
23-Dec-17 09:31 47.526534 -122.302002 154 19ft 0kts
23-Dec-17 09:32 47.526534 -122.302002 154 19ft 0kts
23-Dec-17 09:33 47.526534 -122.302002 154 19ft 0kts
23-Dec-17 09:34 47.526534 -122.302002 154 19ft 0kts
23-Dec-17 09:35 47.526534 -122.302002 154 19ft 0kts
23-Dec-17 09:36 47.526534 -122.302002 154 19ft 0kts
23-Dec-17 09:37 47.526533 -122.302002 154 19ft 0kts
23-Dec-17 09:38 47.526533 -122.302002 154 19ft 0kts
23-Dec-17 09:39 47.526533 -122.302002 154 19ft 0kts
23-Dec-17 09:40 47.526533 -122.302002 154 19ft 0kts
23-Dec-17 09:41 47.526533 -122.302002 154 19ft 0kts
23-Dec-17 09:42 47.526533 -122.302002 154 19ft 0kts
23-Dec-17 09:43 47.526533 -122.302002 154 19ft 0kts
23-Dec-17 09:44 47.524483 -122.299240 150 19ft 33kts
23-Dec-17 09:45 47.516726 -122.292865 124 19ft 14kts
23-Dec-17 09:46 47.516640 -122.292566 101 19ft 0kts
23-Dec-17 09:47 47.516640 -122.292565 101 19ft 0kts
23-Dec-17 09:48 47.516640 -122.292566 101 19ft 0kts
23-Dec-17 09:49 47.516640 -122.292565 101 19ft 0kts
23-Dec-17 09:50 47.516640 -122.292565 101 19ft 0kts
23-Dec-17 09:51 47.516640 -122.292565 101 19ft 0kts
23-Dec-17 09:52 47.516640 -122.292565 101 19ft 0kts
23-Dec-17 09:53 47.516640 -122.292565 101 19ft 0kts
23-Dec-17 09:54 47.519622 -122.295947 67 19ft 9kts
23-Dec-17 09:55 47.516667 -122.292622 126 19ft 0kts
23-Dec-17 09:56 47.516666 -122.292622 126 19ft 0kts
23-Dec-17 09:57 47.516666 -122.292622 126 19ft 0kts
23-Dec-17 09:58 47.516666 -122.292622 126 19ft 0kts
23-Dec-17 09:59 47.516666 -122.292622 126 19ft 0kts
23-Dec-17 10:00 47.516666 -122.292622 126 19ft 0kts
23-Dec-17 10:01 47.516666 -122.292622 126 19ft 0kts
23-Dec-17 10:02 47.519698 -122.295440 102 19ft 18kts
23-Dec-17 10:03 47.516676 -122.292618 120 19ft 0kts
23-Dec-17 10:04 47.516922 -122.291752 31 19ft 14kts
23-Dec-17 10:05 47.529761 -122.302610 332 294ft 99kts
23-Dec-17 10:06 47.554841 -122.324341 333 1572ft 104kts
23-Dec-17 10:07 47.586757 -122.351795 332 1568ft 145kts
23-Dec-17 10:08 47.614529 -122.397044 311 1750ft 137kts
23-Dec-17 10:09 47.634148 -122.432480 335 2987ft 106kts
23-Dec-17 10:10 47.659716 -122.451109 337 3994ft 104kts
23-Dec-17 10:11 47.691421 -122.474905 335 3963ft 147kts
23-Dec-17 10:12 47.728310 -122.500456 338 3981ft 149kts
23-Dec-17 10:13 47.765999 -122.526352 338 3983ft 149kts
23-Dec-17 10:14 47.803635 -122.552221 338 3981ft 149kts
23-Dec-17 10:15 47.841949 -122.578697 339 3983ft 154kts
23-Dec-17 10:16 47.881267 -122.605734 339 4010ft 157kts
23-Dec-17 10:17 47.920970 -122.633068 339 4064ft 159kts
23-Dec-17 10:18 47.960675 -122.660425 338 4062ft 159kts
23-Dec-17 10:19 47.998808 -122.686843 339 4363ft 154kts
23-Dec-17 10:20 48.037033 -122.713186 339 4555ft 157kts
23-Dec-17 10:21 48.077608 -122.737179 352 4555ft 157kts
23-Dec-17 10:22 48.119664 -122.740183 5 4556ft 155kts
23-Dec-17 10:23 48.162085 -122.735918 7 4556ft 154kts
23-Dec-17 10:24 48.204786 -122.730165 8 4561ft 154kts
23-Dec-17 10:25 48.247732 -122.725470 350 4481ft 161kts
23-Dec-17 10:26 48.290495 -122.742860 349 4482ft 158kts
23-Dec-17 10:27 48.332946 -122.759621 348 4482ft 158kts
23-Dec-17 10:28 48.375572 -122.776668 349 4482ft 158kts
23-Dec-17 10:29 48.417956 -122.793643 348 4482ft 158kts
23-Dec-17 10:30 48.459682 -122.810362 348 4482ft 157kts
23-Dec-17 10:31 48.502008 -122.827365 348 4481ft 157kts
23-Dec-17 10:32 48.544270 -122.844364 348 4482ft 157kts
23-Dec-17 10:33 48.586459 -122.861383 348 4395ft 155kts
23-Dec-17 10:34 48.625781 -122.885824 332 2594ft 143kts
23-Dec-17 10:35 48.655162 -122.909632 348 1576ft 106kts
23-Dec-17 10:36 48.681651 -122.910116 2 871ft 83kts
23-Dec-17 10:37 48.704058 -122.910635 357 75ft 70kts
23-Dec-17 10:38 48.709639 -122.909944 137 15ft 0kts
23-Dec-17 10:39 48.709648 -122.909281 96 11ft 0kts
23-Dec-17 10:40 48.709648 -122.909281 96 11ft 0kts

Navigation Log

Ident Type
Flight plan parsing failed, navigation log unavailable